jeudi 6 mars 2014

ALERTE SPOTTING 06/03/14

P18
  PEA181  10h55/13h40

73H CN-RGN RAM (sticker 50th 737)
  AT780/AT749   11h15/12h15
 AT740/AT781  19h25/20h40

343  F-GLZC Air France
   dpt AF375Y 14h00

77W F-GSQX Air France
   dpt  AF4008 13h45
  arv  AF371V 18h35

Manque les prévisions/immats UX / BE / AZ / TP / BA / AH
*** Heures en Local Time **
Prévisions soumises à modifications de dernières minute. Voir le log du mois pour la version 'définitive' de la journée: http://www.airkalo.com/ORLYAVIATION/Logdumois.html

le TAF de la journée:

METAR: LFPO 060400Z 27002KT CAVOK 01/M00 Q1027 NOSIG=
TAF LONG: LFPO 052300Z 0600/0706 VRB02KT CAVOK TEMPO 0603/0607 7000 MIFG
BECMG 0609/0612 10005KT BECMG 0703/0706 16005KT TEMPO 0703/0706 3000
BR=